Time;durP1;ratioP1;P1;durP2;ratioP2;P2;SDS_P1;SDS_P2;PMS_P1;PMS_P2;Temp;Humidity;BMP_temperature;BMP_pressure;BME280_temperature;BME280_humidity;BME280_pressure;Samples;Min_cycle;Max_cycle;Signal;HPM_P1;HPM_P2
2022/10/05 00:02:22;;;;;;;;;;;15.80;99.90;;;;;;5011760;28;20379;-89
2022/10/05 00:04:50;;;;;;;;;;;15.60;99.90;;;;;;5011055;28;19921;-89
2022/10/05 00:07:17;;;;;;;;;;;15.60;99.90;;;;;;5011617;28;19921;-89
2022/10/05 00:09:44;;;;;;;;;;;15.60;99.90;;;;;;5028846;28;19921;-89
2022/10/05 00:12:14;;;;;;;;;;;15.60;99.90;;;;;;5012295;28;20303;-88
2022/10/05 00:14:40;;;;;;;;;;;15.60;99.90;;;;;;5013191;28;20015;-89
2022/10/05 00:17:05;;;;;;;;;;;15.60;99.90;;;;;;5014290;28;20367;-90
2022/10/05 00:19:32;;;;;;;;;;;15.60;99.90;;;;;;5000616;28;19963;-90
2022/10/05 00:22:04;;;;;;;;;;;15.60;99.90;;;;;;5031607;28;19967;-89
2022/10/05 00:24:30;;;;;;;;;;;15.60;99.90;;;;;;5016302;28;19921;-89
2022/10/05 00:26:58;;;;;;;;;;;15.60;99.90;;;;;;4999984;28;19921;-89
2022/10/05 00:29:24;;;;;;;;;;;16.40;99.90;;;;;;5014708;28;19966;-89
2022/10/05 00:31:50;;;;;;;;;;;15.60;99.90;;;;;;5032591;28;19924;-89
2022/10/05 00:34:16;;;;;;;;;;;16.00;99.90;;;;;;5016537;28;19920;-89
2022/10/05 00:36:42;;;;;;;;;;;15.50;99.90;;;;;;5010176;28;19925;-90
2022/10/05 00:39:08;;;;;;;;;;;15.50;99.90;;;;;;5009070;28;19920;-89
2022/10/05 00:41:36;;;;;;;;;;;16.20;99.90;;;;;;5042955;28;19964;-89
2022/10/05 00:44:08;;;;;;;;;;;15.50;99.90;;;;;;5033208;28;19970;-90
2022/10/05 00:46:46;;;;;;;;;;;15.60;99.90;;;;;;5032062;28;19980;-88
2022/10/05 00:49:28;;;;;;;;;;;15.50;99.90;;;;;;5039381;28;19917;-89
2022/10/05 00:52:19;;;;;;;;;;;15.50;99.90;;;;;;5036275;28;19951;-90
2022/10/05 00:55:04;;;;;;;;;;;15.50;99.90;;;;;;5047321;28;19948;-88
2022/10/05 00:57:30;;;;;;;;;;;15.60;99.90;;;;;;5046292;28;19963;-89
2022/10/05 01:00:06;;;;;;;;;;;15.50;99.90;;;;;;5038194;28;19921;-90
2022/10/05 01:02:38;;;;;;;;;;;15.50;99.90;;;;;;5039574;28;19943;-89
2022/10/05 01:05:14;;;;;;;;;;;15.50;99.90;;;;;;5036519;28;19983;-89
2022/10/05 01:07:45;;;;;;;;;;;15.50;99.90;;;;;;5033856;28;19928;-89
2022/10/05 01:10:14;;;;;;;;;;;15.40;99.90;;;;;;5019046;28;19975;-89
2022/10/05 01:12:58;;;;;;;;;;;15.40;99.90;;;;;;5015989;28;20373;-89
2022/10/05 01:15:30;;;;;;;;;;;15.50;99.90;;;;;;5016747;28;19920;-88
2022/10/05 01:18:06;;;;;;;;;;;15.50;99.90;;;;;;5015087;28;19966;-89
2022/10/05 01:20:50;;;;;;;;;;;15.50;99.90;;;;;;5014408;28;19931;-89
2022/10/05 01:23:34;;;;;;;;;;;15.40;99.90;;;;;;5016086;28;20276;-89
2022/10/05 01:26:06;;;;;;;;;;;15.50;99.90;;;;;;5013274;28;19920;-89
2022/10/05 01:28:38;;;;;;;;;;;15.40;99.90;;;;;;5015164;28;19978;-89
2022/10/05 01:31:18;;;;;;;;;;;15.50;99.90;;;;;;5032176;28;20326;-89
2022/10/05 01:33:53;;;;;;;;;;;15.50;99.90;;;;;;5014594;28;19921;-88
2022/10/05 01:36:38;;;;;;;;;;;15.50;99.90;;;;;;5031684;28;19921;-88
2022/10/05 01:39:18;;;;;;;;;;;15.50;99.90;;;;;;5013531;28;20013;-90
2022/10/05 01:41:49;;;;;;;;;;;15.50;99.90;;;;;;5030319;28;19921;-88
2022/10/05 01:44:20;;;;;;;;;;;15.50;99.90;;;;;;5013846;28;20296;-90
2022/10/05 01:46:54;;;;;;;;;;;15.50;99.90;;;;;;5028975;28;19999;-89
2022/10/05 01:49:32;;;;;;;;;;;15.50;99.90;;;;;;5014151;28;19920;-89
2022/10/05 01:52:01;;;;;;;;;;;15.50;99.90;;;;;;5013303;28;20324;-89
2022/10/05 01:54:38;;;;;;;;;;;15.50;99.90;;;;;;5014042;28;20401;-89
2022/10/05 01:57:03;;;;;;;;;;;15.50;99.90;;;;;;5030109;28;19975;-88
2022/10/05 01:59:42;;;;;;;;;;;15.50;99.90;;;;;;5013214;28;19928;-88
2022/10/05 02:02:10;;;;;;;;;;;15.50;99.90;;;;;;5020275;28;19927;-89
2022/10/05 02:04:43;;;;;;;;;;;15.50;99.90;;;;;;5014987;28;20382;-90
2022/10/05 02:07:15;;;;;;;;;;;15.50;99.90;;;;;;5018973;28;19921;-88
2022/10/05 02:09:45;;;;;;;;;;;15.40;99.90;;;;;;5031275;28;19974;-90
2022/10/05 02:12:13;;;;;;;;;;;15.50;99.90;;;;;;5022057;28;19921;-92
2022/10/05 02:14:41;;;;;;;;;;;15.40;99.90;;;;;;5025437;28;19928;-92
2022/10/05 02:17:15;;;;;;;;;;;15.40;99.90;;;;;;5039897;28;19943;-91
2022/10/05 02:19:44;;;;;;;;;;;15.40;99.90;;;;;;5025565;28;19921;-90
2022/10/05 02:22:13;;;;;;;;;;;15.40;99.90;;;;;;5033584;28;19921;-89
2022/10/05 02:24:59;;;;;;;;;;;15.40;99.90;;;;;;5013557;28;19920;-89
2022/10/05 02:27:27;;;;;;;;;;;15.30;99.90;;;;;;5019614;28;19929;-89
2022/10/05 02:29:55;;;;;;;;;;;15.30;99.90;;;;;;5030994;28;19924;-88
2022/10/05 02:32:23;;;;;;;;;;;15.30;99.90;;;;;;5016837;28;20022;-88
2022/10/05 02:34:48;;;;;;;;;;;15.30;99.90;;;;;;5016062;28;19924;-89
2022/10/05 02:37:17;;;;;;;;;;;15.30;99.90;;;;;;5022141;28;19990;-89
2022/10/05 02:39:50;;;;;;;;;;;15.20;99.90;;;;;;5022512;28;20058;-90
2022/10/05 02:42:35;;;;;;;;;;;15.30;99.90;;;;;;5024079;28;19921;-88
2022/10/05 02:45:01;;;;;;;;;;;15.30;99.90;;;;;;5023808;28;19920;-89
2022/10/05 02:47:36;;;;;;;;;;;15.30;99.90;;;;;;5023840;28;19977;-88
2022/10/05 02:50:07;;;;;;;;;;;15.30;99.90;;;;;;5025493;28;19976;-89
2022/10/05 02:52:56;;;;;;;;;;;15.30;99.90;;;;;;5024513;28;19962;-88
2022/10/05 02:55:42;;;;;;;;;;;15.40;99.90;;;;;;5015762;28;19931;-89
2022/10/05 02:58:13;;;;;;;;;;;15.40;99.90;;;;;;5039577;28;20070;-88
2022/10/05 03:00:49;;;;;;;;;;;15.30;99.90;;;;;;5039766;28;19943;-89
2022/10/05 03:03:26;;;;;;;;;;;15.30;99.90;;;;;;5022884;28;20372;-90
2022/10/05 03:05:57;;;;;;;;;;;15.40;99.90;;;;;;5021906;28;19924;-87
2022/10/05 03:08:31;;;;;;;;;;;15.40;99.90;;;;;;5021394;28;19931;-89
2022/10/05 03:11:16;;;;;;;;;;;15.40;99.90;;;;;;5020020;28;20430;-89
2022/10/05 03:13:46;;;;;;;;;;;15.40;99.90;;;;;;5014196;28;20233;-89
2022/10/05 03:16:12;;;;;;;;;;;15.40;99.90;;;;;;5013243;28;19928;-90
2022/10/05 03:18:56;;;;;;;;;;;15.40;99.90;;;;;;5013385;28;20352;-89
2022/10/05 03:21:28;;;;;;;;;;;15.40;99.90;;;;;;5012782;28;19932;-90
2022/10/05 03:23:57;;;;;;;;;;;15.40;99.90;;;;;;5013208;28;19921;-89
2022/10/05 03:26:25;;;;;;;;;;;15.40;99.90;;;;;;5010845;28;19993;-90
2022/10/05 03:29:14;;;;;;;;;;;15.40;99.90;;;;;;5013385;28;19920;-90
2022/10/05 03:31:45;;;;;;;;;;;15.40;99.90;;;;;;5012233;28;19927;-90
2022/10/05 03:34:37;;;;;;;;;;;15.40;99.90;;;;;;5011513;28;19924;-89
2022/10/05 03:37:06;;;;;;;;;;;15.40;99.90;;;;;;5009565;28;19924;-89
2022/10/05 03:39:38;;;;;;;;;;;15.40;99.90;;;;;;5011037;28;20407;-89
2022/10/05 03:42:22;;;;;;;;;;;15.40;99.90;;;;;;5013411;28;19921;-90
2022/10/05 03:45:06;;;;;;;;;;;15.40;99.90;;;;;;5012576;28;19921;-90
2022/10/05 03:47:44;;;;;;;;;;;15.40;99.90;;;;;;5010859;28;19924;-90
2022/10/05 03:50:25;;;;;;;;;;;15.40;99.90;;;;;;5012954;28;20542;-91
2022/10/05 03:52:55;;;;;;;;;;;15.40;99.90;;;;;;5015397;28;19967;-91
2022/10/05 03:55:20;;;;;;;;;;;15.40;99.90;;;;;;5015692;28;19921;-90
2022/10/05 03:57:48;;;;;;;;;;;15.40;99.90;;;;;;5016805;28;19974;-91
2022/10/05 04:00:16;;;;;;;;;;;15.40;99.90;;;;;;5033348;28;19921;-89
2022/10/05 04:02:57;;;;;;;;;;;15.40;99.90;;;;;;5037639;28;19970;-89
2022/10/05 04:05:55;;;;;;;;;;;15.40;99.90;;;;;;5016157;28;19924;-89
2022/10/05 04:08:31;;;;;;;;;;;15.40;99.90;;;;;;5001739;28;19921;-90
2022/10/05 04:11:00;;;;;;;;;;;15.40;99.90;;;;;;5022019;28;19967;-91
2022/10/05 04:13:32;;;;;;;;;;;15.40;99.90;;;;;;5032603;28;19963;-89
2022/10/05 04:15:57;;;;;;;;;;;15.40;99.90;;;;;;5019135;28;19975;-90
2022/10/05 04:18:49;;;;;;;;;;;15.90;99.90;;;;;;5017496;28;19931;-90
2022/10/05 04:21:29;;;;;;;;;;;15.40;99.90;;;;;;5015204;28;19921;-89
2022/10/05 04:23:59;;;;;;;;;;;15.40;99.90;;;;;;5015917;28;20336;-89
2022/10/05 04:26:38;;;;;;;;;;;15.40;99.90;;;;;;5014692;28;20383;-89
2022/10/05 04:29:30;;;;;;;;;;;15.30;99.90;;;;;;5032103;28;19992;-89
2022/10/05 04:32:02;;;;;;;;;;;15.30;99.90;;;;;;5012468;28;19920;-91
2022/10/05 04:34:43;;;;;;;;;;;15.30;99.90;;;;;;5014794;28;20527;-89
2022/10/05 04:37:21;;;;;;;;;;;15.30;99.90;;;;;;5032780;28;20338;-90
2022/10/05 04:40:10;;;;;;;;;;;15.30;99.90;;;;;;5031378;28;19920;-89
2022/10/05 04:42:44;;;;;;;;;;;15.20;99.90;;;;;;5024107;28;19921;-92
2022/10/05 04:45:22;;;;;;;;;;;15.30;99.90;;;;;;5016279;28;20402;-95
2022/10/05 04:48:09;;;;;;;;;;;15.30;99.90;;;;;;5046396;28;20008;-96
2022/10/05 04:50:47;;;;;;;;;;;15.30;99.90;;;;;;5026686;28;19972;-92
2022/10/05 04:53:31;;;;;;;;;;;15.20;99.90;;;;;;5023699;28;19921;-96
2022/10/05 04:55:57;;;;;;;;;;;14.80;99.90;;;;;;5047501;28;19921;-96
2022/10/05 04:58:23;;;;;;;;;;;15.30;99.90;;;;;;5050752;28;19993;-96
2022/10/05 05:01:01;;;;;;;;;;;15.30;99.90;;;;;;5035704;28;19925;-96
2022/10/05 05:03:37;;;;;;;;;;;15.20;99.90;;;;;;5037387;28;19943;-96
2022/10/05 05:06:21;;;;;;;;;;;15.20;99.90;;;;;;5030782;28;19925;-92
2022/10/05 05:09:10;;;;;;;;;;;15.20;99.90;;;;;;5014861;28;19975;-91
2022/10/05 05:11:45;;;;;;;;;;;15.20;99.90;;;;;;5012905;28;19921;-94
2022/10/05 05:14:11;;;;;;;;;;;15.20;99.90;;;;;;5015912;28;19955;-96
2022/10/05 05:16:41;;;;;;;;;;;15.20;99.90;;;;;;5024537;28;20371;-93
2022/10/05 05:19:06;;;;;;;;;;;15.20;99.90;;;;;;5012951;28;19921;-96
2022/10/05 05:21:54;;;;;;;;;;;15.20;99.90;;;;;;5017250;28;19925;-92
2022/10/05 05:24:39;;;;;;;;;;;15.20;99.90;;;;;;4994794;28;19924;-94
2022/10/05 05:27:17;;;;;;;;;;;15.10;99.90;;;;;;5012592;28;19925;-91
2022/10/05 05:30:05;;;;;;;;;;;15.20;99.90;;;;;;5011979;28;19995;-89
2022/10/05 05:32:36;;;;;;;;;;;15.10;99.90;;;;;;5010863;28;19929;-87
2022/10/05 05:35:11;;;;;;;;;;;15.10;99.90;;;;;;5012174;28;19980;-92
2022/10/05 05:37:49;;;;;;;;;;;15.10;99.90;;;;;;5012211;28;19928;-94
2022/10/05 05:40:16;;;;;;;;;;;15.20;99.90;;;;;;5028275;28;19921;-93
2022/10/05 05:42:45;;;;;;;;;;;15.10;99.90;;;;;;5030040;28;19979;-92
2022/10/05 05:45:15;;;;;;;;;;;15.10;99.90;;;;;;5014633;28;19921;-96
2022/10/05 05:47:43;;;;;;;;;;;15.10;99.90;;;;;;5035547;28;19921;-95
2022/10/05 05:50:29;;;;;;;;;;;15.10;99.90;;;;;;5012524;28;19952;-91
2022/10/05 05:52:58;;;;;;;;;;;15.10;99.90;;;;;;5014154;28;19921;-92
2022/10/05 05:55:30;;;;;;;;;;;15.10;99.90;;;;;;5013930;28;19921;-96
2022/10/05 05:57:59;;;;;;;;;;;15.10;99.90;;;;;;5015557;28;20015;-91
2022/10/05 06:00:33;;;;;;;;;;;15.10;99.90;;;;;;5017401;28;19921;-94
2022/10/05 06:03:17;;;;;;;;;;;15.10;99.90;;;;;;5012744;28;19976;-94
2022/10/05 06:05:46;;;;;;;;;;;15.20;99.90;;;;;;5019088;28;19932;-95
2022/10/05 06:08:24;;;;;;;;;;;15.10;99.90;;;;;;5021379;28;19932;-93
2022/10/05 06:10:56;;;;;;;;;;;15.10;99.90;;;;;;5022749;28;19921;-94
2022/10/05 06:13:31;;;;;;;;;;;15.20;99.90;;;;;;5022341;28;19921;-93
2022/10/05 06:16:17;;;;;;;;;;;15.20;99.90;;;;;;5021895;28;19931;-94
2022/10/05 06:18:45;;;;;;;;;;;15.20;99.90;;;;;;5017480;28;19921;-95
2022/10/05 06:21:17;;;;;;;;;;;15.20;99.90;;;;;;5014193;28;19921;-95
2022/10/05 06:23:49;;;;;;;;;;;15.20;99.90;;;;;;5014059;28;19925;-96
2022/10/05 06:26:14;;;;;;;;;;;15.20;99.90;;;;;;5014144;28;19975;-96
2022/10/05 06:28:40;;;;;;;;;;;15.70;99.90;;;;;;5013341;28;19921;-95
2022/10/05 06:31:14;;;;;;;;;;;15.20;99.90;;;;;;5015426;28;19928;-96
2022/10/05 06:33:49;;;;;;;;;;;15.20;99.90;;;;;;5039485;28;19921;-96
2022/10/05 06:36:27;;;;;;;;;;;15.20;99.90;;;;;;5029536;28;19921;-96
2022/10/05 06:39:12;;;;;;;;;;;15.20;99.90;;;;;;5024553;28;19978;-96
2022/10/05 06:41:38;;;;;;;;;;;15.50;99.90;;;;;;5021288;28;19917;-94
2022/10/05 06:44:27;;;;;;;;;;;15.60;99.90;;;;;;5034084;28;19944;-95
2022/10/05 06:47:03;;;;;;;;;;;15.20;99.90;;;;;;5034174;28;19925;-96
2022/10/05 06:49:50;;;;;;;;;;;15.20;99.90;;;;;;5022951;28;19920;-95
2022/10/05 06:52:49;;;;;;;;;;;15.30;99.90;;;;;;5023271;28;19967;-93
2022/10/05 06:55:26;;;;;;;;;;;15.30;99.90;;;;;;4984379;28;19982;-94
2022/10/05 06:57:58;;;;;;;;;;;15.30;99.90;;;;;;5017728;28;19931;-93
2022/10/05 07:00:44;;;;;;;;;;;15.30;99.90;;;;;;5016362;28;19966;-94
2022/10/05 07:03:26;;;;;;;;;;;15.30;99.90;;;;;;5021389;28;20302;-94
2022/10/05 07:05:55;;;;;;;;;;;15.30;99.90;;;;;;5015041;28;19924;-92
2022/10/05 07:08:36;;;;;;;;;;;15.30;99.90;;;;;;5014421;28;19924;-92
2022/10/05 07:11:14;;;;;;;;;;;15.30;99.90;;;;;;5014098;28;19927;-93
2022/10/05 07:13:39;;;;;;;;;;;15.40;99.90;;;;;;5013562;28;19921;-93
2022/10/05 07:16:14;;;;;;;;;;;15.40;99.90;;;;;;5013790;28;19920;-94
2022/10/05 07:18:57;;;;;;;;;;;15.50;99.90;;;;;;5015284;28;19943;-92
2022/10/05 07:21:38;;;;;;;;;;;15.50;99.90;;;;;;5015059;28;19950;-93
2022/10/05 07:24:10;;;;;;;;;;;15.50;99.90;;;;;;5016251;28;20375;-93
2022/10/05 07:26:39;;;;;;;;;;;15.50;99.90;;;;;;5014828;28;20437;-91
2022/10/05 07:29:11;;;;;;;;;;;15.50;99.90;;;;;;5014827;28;20368;-93
2022/10/05 07:31:37;;;;;;;;;;;15.50;99.90;;;;;;5015481;28;19959;-94
2022/10/05 07:34:08;;;;;;;;;;;15.50;99.90;;;;;;5013297;28;19935;-92
2022/10/05 07:39:37;;;;;;;;;;;15.60;99.90;;;;;;5030449;28;19975;-94
2022/10/05 07:42:03;;;;;;;;;;;15.60;99.90;;;;;;5013889;28;19920;-93
2022/10/05 07:44:32;;;;;;;;;;;15.60;99.90;;;;;;5030536;28;19925;-94
2022/10/05 07:47:16;;;;;;;;;;;15.60;99.90;;;;;;5012493;28;19928;-93
2022/10/05 07:49:48;;;;;;;;;;;15.60;99.90;;;;;;5014222;28;19998;-94
2022/10/05 07:52:19;;;;;;;;;;;15.70;99.90;;;;;;5014097;28;19921;-93
2022/10/05 07:54:51;;;;;;;;;;;15.70;99.90;;;;;;5013427;28;20011;-93
2022/10/05 07:57:29;;;;;;;;;;;15.80;99.90;;;;;;5014190;28;20011;-95
2022/10/05 07:59:55;;;;;;;;;;;15.80;99.90;;;;;;5012472;28;19921;-93
2022/10/05 08:02:43;;;;;;;;;;;16.40;99.90;;;;;;5013760;28;20008;-94
2022/10/05 08:05:35;;;;;;;;;;;15.80;99.90;;;;;;5013715;28;20364;-94
2022/10/05 08:08:00;;;;;;;;;;;15.90;99.90;;;;;;5010609;28;19972;-93
2022/10/05 08:10:30;;;;;;;;;;;15.90;99.90;;;;;;5030483;28;19928;-93
2022/10/05 08:13:18;;;;;;;;;;;15.90;99.90;;;;;;5013111;28;19929;-92
2022/10/05 08:15:47;;;;;;;;;;;15.90;99.90;;;;;;5013353;28;19921;-92
2022/10/05 08:18:31;;;;;;;;;;;16.00;99.90;;;;;;5013271;28;19990;-93
2022/10/05 08:20:57;;;;;;;;;;;15.90;99.90;;;;;;5013162;28;19921;-93
2022/10/05 08:23:23;;;;;;;;;;;15.90;99.90;;;;;;5013416;28;20368;-90
2022/10/05 08:26:06;;;;;;;;;;;16.00;99.90;;;;;;5012734;28;19921;-94
2022/10/05 08:28:35;;;;;;;;;;;16.00;99.90;;;;;;5015111;28;19991;-93
2022/10/05 08:31:12;;;;;;;;;;;16.00;99.90;;;;;;5031673;28;19921;-93
2022/10/05 08:33:50;;;;;;;;;;;16.10;99.90;;;;;;5015946;28;20008;-93
2022/10/05 08:36:19;;;;;;;;;;;16.10;99.90;;;;;;5020560;28;19921;-93
2022/10/05 08:38:45;;;;;;;;;;;16.20;99.90;;;;;;5026193;28;19975;-92
2022/10/05 08:41:22;;;;;;;;;;;16.30;99.90;;;;;;5027891;28;19920;-93
2022/10/05 08:44:00;;;;;;;;;;;16.40;99.90;;;;;;5028064;28;20376;-92
2022/10/05 08:46:38;;;;;;;;;;;16.40;99.90;;;;;;5026193;28;19949;-94
2022/10/05 08:49:25;;;;;;;;;;;16.40;99.90;;;;;;5038252;28;19921;-94
2022/10/05 08:52:00;;;;;;;;;;;16.50;99.90;;;;;;5021952;28;19928;-93
2022/10/05 08:54:43;;;;;;;;;;;16.50;99.90;;;;;;5024403;28;19955;-92
2022/10/05 08:57:27;;;;;;;;;;;16.60;99.90;;;;;;5024318;28;19976;-93
2022/10/05 09:00:11;;;;;;;;;;;16.70;99.90;;;;;;5020662;28;19960;-93
2022/10/05 09:02:55;;;;;;;;;;;16.70;99.90;;;;;;5022892;28;19978;-94
2022/10/05 09:05:44;;;;;;;;;;;16.80;99.90;;;;;;5018959;28;19920;-93
2022/10/05 09:08:29;;;;;;;;;;;16.80;99.90;;;;;;5009753;28;19964;-94
2022/10/05 09:10:56;;;;;;;;;;;16.80;99.90;;;;;;5017604;28;20279;-92
2022/10/05 09:13:30;;;;;;;;;;;16.90;99.90;;;;;;5014945;28;19921;-93
2022/10/05 09:16:07;;;;;;;;;;;16.90;99.90;;;;;;5017886;28;20061;-93
2022/10/05 09:18:39;;;;;;;;;;;16.90;99.90;;;;;;5017136;28;19920;-91
2022/10/05 09:21:14;;;;;;;;;;;16.90;99.90;;;;;;5018866;28;20364;-92
2022/10/05 09:23:43;;;;;;;;;;;16.90;99.90;;;;;;5019528;28;20303;-92
2022/10/05 09:26:28;;;;;;;;;;;16.20;99.90;;;;;;5005996;28;20351;-92
2022/10/05 09:29:04;;;;;;;;;;;16.90;99.90;;;;;;5025488;28;20362;-93
2022/10/05 09:31:38;;;;;;;;;;;17.00;99.90;;;;;;5043893;28;19931;-93
2022/10/05 09:34:10;;;;;;;;;;;17.00;99.90;;;;;;5027484;28;19928;-91
2022/10/05 09:36:55;;;;;;;;;;;17.10;99.90;;;;;;5023136;28;19971;-93
2022/10/05 09:39:37;;;;;;;;;;;17.20;99.90;;;;;;5016590;28;20457;-94
2022/10/05 09:42:03;;;;;;;;;;;17.20;99.90;;;;;;5016089;28;20466;-92
2022/10/05 09:44:39;;;;;;;;;;;17.30;99.90;;;;;;5016577;28;19972;-93
2022/10/05 09:47:28;;;;;;;;;;;17.30;99.90;;;;;;5017524;28;19924;-96
2022/10/05 09:50:05;;;;;;;;;;;17.30;99.90;;;;;;5018961;28;19921;-95
2022/10/05 09:52:51;;;;;;;;;;;17.00;99.90;;;;;;5016212;28;20010;-94
2022/10/05 09:55:32;;;;;;;;;;;17.40;99.90;;;;;;5016537;28;19921;-95
2022/10/05 09:58:19;;;;;;;;;;;17.50;99.90;;;;;;5016663;28;19921;-93
2022/10/05 10:00:55;;;;;;;;;;;17.50;99.90;;;;;;5015247;28;20011;-94
2022/10/05 10:03:24;;;;;;;;;;;17.50;99.90;;;;;;5017347;28;19920;-94
2022/10/05 10:05:56;;;;;;;;;;;17.60;99.90;;;;;;5019359;28;20003;-95
2022/10/05 10:08:24;;;;;;;;;;;17.60;99.90;;;;;;5024512;28;19921;-94
2022/10/05 10:11:03;;;;;;;;;;;17.60;99.90;;;;;;5025380;28;19921;-94
2022/10/05 10:13:40;;;;;;;;;;;17.60;99.90;;;;;;5024223;28;20443;-93
2022/10/05 10:16:12;;;;;;;;;;;17.70;99.90;;;;;;5024917;28;19922;-94
2022/10/05 10:19:04;;;;;;;;;;;17.70;99.90;;;;;;5024129;28;19921;-93
2022/10/05 10:21:41;;;;;;;;;;;17.60;99.90;;;;;;5020700;28;19924;-92
2022/10/05 10:24:25;;;;;;;;;;;17.70;99.90;;;;;;5023418;28;19920;-93
2022/10/05 10:26:58;;;;;;;;;;;17.70;99.90;;;;;;5021389;28;19920;-95
2022/10/05 10:29:24;;;;;;;;;;;17.70;99.90;;;;;;5022222;28;19932;-91
2022/10/05 10:32:02;;;;;;;;;;;17.60;99.90;;;;;;5020711;28;19920;-96
2022/10/05 10:34:36;;;;;;;;;;;17.60;99.90;;;;;;5029079;28;19921;-93
2022/10/05 10:37:22;;;;;;;;;;;17.50;99.90;;;;;;5020020;28;20015;-95
2022/10/05 10:40:24;;;;;;;;;;;17.50;99.90;;;;;;5036130;28;20410;-94
2022/10/05 10:43:16;;;;;;;;;;;17.40;99.90;;;;;;4963037;28;19921;-92
2022/10/05 10:46:01;;;;;;;;;;;17.40;99.90;;;;;;5028737;28;19928;-96
2022/10/05 10:48:45;;;;;;;;;;;17.30;99.90;;;;;;5033487;28;19927;-96
2022/10/05 10:51:30;;;;;;;;;;;17.30;99.90;;;;;;5034591;28;19977;-96
2022/10/05 10:54:16;;;;;;;;;;;17.30;99.90;;;;;;5053455;28;19954;-96
2022/10/05 10:56:53;;;;;;;;;;;17.30;99.90;;;;;;5038376;28;19917;-96
2022/10/05 10:59:40;;;;;;;;;;;17.20;99.90;;;;;;5040323;28;19916;-93
2022/10/05 11:02:26;;;;;;;;;;;17.20;99.90;;;;;;5043420;28;19976;-96
2022/10/05 11:05:22;;;;;;;;;;;17.20;99.90;;;;;;5039646;28;19946;-95
2022/10/05 11:10:55;;;;;;;;;;;17.10;99.90;;;;;;5059353;28;19917;-93
2022/10/05 11:13:46;;;;;;;;;;;17.20;99.90;;;;;;5058040;28;19917;-96
2022/10/05 11:16:22;;;;;;;;;;;17.10;99.90;;;;;;5039023;28;19905;-96
2022/10/05 11:18:57;;;;;;;;;;;17.20;99.90;;;;;;5038890;28;19924;-96
2022/10/05 11:21:45;;;;;;;;;;;17.20;99.90;;;;;;5057145;28;19920;-96
2022/10/05 11:24:37;;;;;;;;;;;17.20;99.90;;;;;;5042197;28;19956;-90
2022/10/05 11:27:35;;;;;;;;;;;17.10;99.90;;;;;;5057248;28;19904;-96
2022/10/05 11:30:01;;;;;;;;;;;17.20;99.90;;;;;;5010854;28;19917;-96
2022/10/05 11:32:52;;;;;;;;;;;17.10;99.90;;;;;;5024499;28;20644;-96
2022/10/05 11:35:18;;;;;;;;;;;17.10;99.90;;;;;;5023406;28;19921;-94
2022/10/05 11:37:45;;;;;;;;;;;17.00;99.90;;;;;;5028395;28;19920;-96
2022/10/05 11:40:10;;;;;;;;;;;17.00;99.90;;;;;;5029877;28;19911;-96
2022/10/05 11:42:50;;;;;;;;;;;16.90;99.90;;;;;;5023123;28;19960;-93
2022/10/05 11:45:20;;;;;;;;;;;16.90;99.90;;;;;;5035756;28;19927;-96
2022/10/05 11:48:06;;;;;;;;;;;16.90;99.90;;;;;;5019924;28;19920;-95
2022/10/05 11:50:38;;;;;;;;;;;16.90;99.90;;;;;;5028073;28;19917;-96
2022/10/05 11:53:10;;;;;;;;;;;16.80;99.90;;;;;;5032311;28;19959;-96
2022/10/05 11:55:44;;;;;;;;;;;16.80;99.90;;;;;;5045261;28;19928;-96
2022/10/05 11:58:23;;;;;;;;;;;16.80;99.90;;;;;;5025566;28;19921;-96
2022/10/05 12:00:54;;;;;;;;;;;16.80;99.90;;;;;;5025834;28;19943;-96
2022/10/05 12:03:34;;;;;;;;;;;16.80;99.90;;;;;;5019006;28;19943;-95
2022/10/05 12:06:26;;;;;;;;;;;16.80;99.90;;;;;;5027860;28;19912;-96
2022/10/05 12:08:56;;;;;;;;;;;16.80;99.90;;;;;;5031101;28;19921;-96
2022/10/05 12:11:47;;;;;;;;;;;16.90;99.90;;;;;;5024190;28;19943;-96
2022/10/05 12:14:23;;;;;;;;;;;16.90;99.90;;;;;;5022009;28;19932;-93
2022/10/05 12:17:22;;;;;;;;;;;16.90;99.90;;;;;;5044614;28;19920;-94
2022/10/05 12:19:54;;;;;;;;;;;16.80;99.90;;;;;;4986291;28;19924;-96
2022/10/05 12:22:30;;;;;;;;;;;16.90;99.90;;;;;;4998974;28;19925;-96
2022/10/05 12:25:05;;;;;;;;;;;16.90;99.90;;;;;;5049214;28;19921;-96
2022/10/05 12:27:36;;;;;;;;;;;16.90;99.90;;;;;;5042911;28;19920;-96
2022/10/05 12:30:21;;;;;;;;;;;16.90;99.90;;;;;;5024409;28;19924;-96
2022/10/05 12:33:00;;;;;;;;;;;16.90;99.90;;;;;;5023436;28;19924;-92
2022/10/05 12:35:49;;;;;;;;;;;17.00;99.90;;;;;;5007302;28;20192;-96
2022/10/05 12:38:35;;;;;;;;;;;17.10;99.90;;;;;;4981069;28;19921;-95
2022/10/05 12:41:04;;;;;;;;;;;17.10;99.90;;;;;;4998440;28;19963;-89
2022/10/05 12:43:45;;;;;;;;;;;16.70;99.90;;;;;;5013704;28;19926;-95
2022/10/05 12:46:30;;;;;;;;;;;17.20;99.90;;;;;;5003194;28;20004;-95
2022/10/05 12:49:07;;;;;;;;;;;17.20;99.90;;;;;;4989072;28;19977;-94
2022/10/05 12:51:41;;;;;;;;;;;17.20;99.90;;;;;;5021736;28;19925;-94
2022/10/05 12:54:15;;;;;;;;;;;17.20;99.90;;;;;;5021015;28;20279;-94
2022/10/05 12:56:47;;;;;;;;;;;17.20;99.90;;;;;;5004963;28;19932;-96
2022/10/05 12:59:13;;;;;;;;;;;17.20;99.90;;;;;;4986242;28;19925;-95
2022/10/05 13:01:46;;;;;;;;;;;17.20;99.90;;;;;;5001813;28;19929;-94
2022/10/05 13:04:27;;;;;;;;;;;17.20;99.90;;;;;;4978189;28;19952;-95
2022/10/05 13:07:03;;;;;;;;;;;17.20;99.90;;;;;;5027875;28;19992;-96
2022/10/05 13:09:35;;;;;;;;;;;17.20;99.90;;;;;;5018877;28;19976;-95
2022/10/05 13:12:24;;;;;;;;;;;17.20;99.90;;;;;;5017637;28;19932;-95
2022/10/05 13:14:59;;;;;;;;;;;17.20;99.90;;;;;;5021070;28;19921;-95
2022/10/05 13:17:31;;;;;;;;;;;17.10;99.90;;;;;;5015988;28;19921;-94
2022/10/05 13:20:01;;;;;;;;;;;17.10;99.90;;;;;;5017506;28;19920;-95
2022/10/05 13:22:42;;;;;;;;;;;17.10;99.90;;;;;;5017878;28;19928;-94
2022/10/05 13:25:18;;;;;;;;;;;17.20;99.90;;;;;;5014348;28;19928;-95
2022/10/05 13:28:02;;;;;;;;;;;17.30;99.90;;;;;;4996861;28;19976;-93
2022/10/05 13:30:28;;;;;;;;;;;17.30;99.90;;;;;;5012330;28;19927;-94
2022/10/05 13:32:54;;;;;;;;;;;17.40;99.90;;;;;;4997089;28;19984;-96
2022/10/05 13:35:25;;;;;;;;;;;17.50;99.90;;;;;;4996993;28;19920;-95
2022/10/05 13:37:51;;;;;;;;;;;17.50;99.90;;;;;;5012032;28;20016;-92
2022/10/05 13:40:41;;;;;;;;;;;17.50;99.90;;;;;;5017256;28;19956;-95
2022/10/05 13:43:21;;;;;;;;;;;17.50;99.90;;;;;;5029993;28;19921;-93
2022/10/05 13:45:55;;;;;;;;;;;17.70;99.90;;;;;;4996853;28;19925;-96
2022/10/05 13:48:41;;;;;;;;;;;17.50;99.90;;;;;;4984470;28;19921;-96
2022/10/05 13:51:28;;;;;;;;;;;17.50;99.90;;;;;;4984665;28;19975;-95
2022/10/05 13:54:04;;;;;;;;;;;17.50;99.90;;;;;;5028866;28;19960;-94
2022/10/05 13:56:36;;;;;;;;;;;17.50;99.90;;;;;;5021928;28;19960;-96
2022/10/05 13:59:28;;;;;;;;;;;17.50;99.90;;;;;;5017358;28;19975;-95
2022/10/05 14:01:58;;;;;;;;;;;17.60;99.90;;;;;;4999805;28;19925;-86
2022/10/05 14:04:27;;;;;;;;;;;17.60;99.90;;;;;;5029127;28;20473;-88
2022/10/05 14:06:52;;;;;;;;;;;17.60;99.90;;;;;;5032945;28;19920;-95
2022/10/05 14:09:18;;;;;;;;;;;17.60;99.90;;;;;;5034033;28;19921;-87
2022/10/05 14:12:05;;;;;;;;;;;17.60;99.90;;;;;;5039317;28;19920;-94
2022/10/05 14:14:32;;;;;;;;;;;17.60;99.90;;;;;;5040524;28;19921;-87
2022/10/05 14:16:59;;;;;;;;;;;17.60;99.90;;;;;;5039373;28;20436;-86
2022/10/05 14:19:26;;;;;;;;;;;17.60;99.90;;;;;;5023680;28;19921;-90
2022/10/05 14:22:09;;;;;;;;;;;17.60;99.90;;;;;;5018145;28;19920;-86
2022/10/05 14:24:35;;;;;;;;;;;17.60;99.90;;;;;;5042503;28;20432;-90
2022/10/05 14:27:17;;;;;;;;;;;17.60;99.90;;;;;;5044028;28;19927;-94
2022/10/05 14:29:53;;;;;;;;;;;17.60;99.90;;;;;;5064108;28;19920;-95
2022/10/05 14:32:22;;;;;;;;;;;17.60;99.90;;;;;;5021003;28;19925;-87
2022/10/05 14:35:07;;;;;;;;;;;17.60;99.90;;;;;;5030906;28;19979;-87
2022/10/05 14:38:03;;;;;;;;;;;17.60;99.90;;;;;;5032260;28;19978;-86
2022/10/05 14:40:30;;;;;;;;;;;17.50;99.90;;;;;;5005502;28;20026;-91
2022/10/05 14:42:58;;;;;;;;;;;17.50;99.90;;;;;;5031811;28;19921;-90
2022/10/05 14:45:25;;;;;;;;;;;17.50;99.90;;;;;;5030415;28;19920;-94
2022/10/05 14:47:50;;;;;;;;;;;17.50;99.90;;;;;;5017361;28;19921;-95
2022/10/05 14:50:24;;;;;;;;;;;17.40;99.90;;;;;;5014613;28;19974;-89
2022/10/05 14:53:01;;;;;;;;;;;17.40;99.90;;;;;;5028549;28;19921;-91
2022/10/05 14:55:27;;;;;;;;;;;17.40;99.90;;;;;;5030399;28;19960;-91
2022/10/05 14:58:01;;;;;;;;;;;17.40;99.90;;;;;;5012037;28;19972;-92
2022/10/05 15:00:29;;;;;;;;;;;17.30;99.90;;;;;;5014448;28;19984;-92
2022/10/05 15:03:02;;;;;;;;;;;17.30;99.90;;;;;;5030994;28;19943;-92
2022/10/05 15:05:30;;;;;;;;;;;17.40;99.90;;;;;;5030359;28;19931;-92
2022/10/05 15:08:20;;;;;;;;;;;17.30;99.90;;;;;;5034128;28;19921;-91
2022/10/05 15:10:59;;;;;;;;;;;17.30;99.90;;;;;;5021357;28;19920;-94
2022/10/05 15:13:28;;;;;;;;;;;17.30;99.90;;;;;;5009413;28;19921;-92